createdAt,value
2024-05-09T00:00:40.713Z,102590.25
2024-05-09T00:03:10.073Z,102601.50
2024-05-09T00:05:41.261Z,102592.91
2024-05-09T00:08:09.517Z,102591.03
2024-05-09T00:10:38.959Z,102593.88
2024-05-09T00:13:07.387Z,102577.28
2024-05-09T00:15:35.262Z,102585.94
2024-05-09T00:18:03.170Z,102582.34
2024-05-09T00:20:37.909Z,102580.44
2024-05-09T00:23:10.605Z,102570.50
2024-05-09T00:25:37.913Z,102576.69
2024-05-09T00:28:05.628Z,102564.44
2024-05-09T00:30:35.676Z,102572.84
2024-05-09T00:33:11.019Z,102568.69
2024-05-09T00:35:39.001Z,102568.47
2024-05-09T00:38:06.024Z,102566.81
2024-05-09T00:40:39.686Z,102565.75
2024-05-09T00:43:13.581Z,102564.66
2024-05-09T00:45:41.893Z,102572.22
2024-05-09T00:48:10.705Z,102569.19
2024-05-09T00:50:42.283Z,102571.13
2024-05-09T00:53:14.116Z,102575.31
2024-05-09T00:55:41.541Z,102563.63
2024-05-09T00:58:10.546Z,102563.94
2024-05-09T01:00:40.131Z,102564.50
2024-05-09T01:03:12.409Z,102555.88
2024-05-09T01:05:41.748Z,102558.41
2024-05-09T01:08:10.414Z,102556.19
2024-05-09T01:10:37.880Z,102557.88
2024-05-09T01:13:05.676Z,102557.31
2024-05-09T01:15:33.721Z,102557.63
2024-05-09T01:18:04.038Z,102554.56
2024-05-09T01:20:40.140Z,102548.72
2024-05-09T01:23:10.701Z,102547.03
2024-05-09T01:25:37.818Z,102545.94
2024-05-09T01:28:04.960Z,102539.03
2024-05-09T01:30:35.305Z,102547.34
2024-05-09T01:33:09.606Z,102549.28
2024-05-09T01:35:42.565Z,102545.13
2024-05-09T01:38:16.681Z,102547.91
2024-05-09T01:40:43.836Z,102549.31
2024-05-09T01:43:11.839Z,102544.84
2024-05-09T01:45:41.994Z,102540.94
2024-05-09T01:48:09.644Z,102543.72
2024-05-09T01:50:40.562Z,102542.34
2024-05-09T01:53:10.583Z,102533.19
2024-05-09T01:55:37.578Z,102538.16
2024-05-09T01:58:08.295Z,102550.66
2024-05-09T02:00:40.054Z,102548.44
2024-05-09T02:03:15.866Z,102547.03
2024-05-09T02:05:49.579Z,102546.50
2024-05-09T02:08:20.951Z,102541.78
2024-05-09T02:10:51.643Z,102540.09
2024-05-09T02:13:18.554Z,102539.00
2024-05-09T02:15:45.706Z,102540.34
2024-05-09T02:18:13.142Z,102536.72
2024-05-09T02:20:41.465Z,102533.66
2024-05-09T02:23:08.962Z,102538.66
2024-05-09T02:25:35.762Z,102532.03
2024-05-09T02:28:02.775Z,102533.41
2024-05-09T02:30:38.340Z,102531.16
2024-05-09T02:33:09.863Z,102533.38
2024-05-09T02:35:38.081Z,102541.44
2024-05-09T02:38:05.326Z,102535.31
2024-05-09T02:40:37.308Z,102531.97
2024-05-09T02:43:07.849Z,102528.13
2024-05-09T02:45:35.215Z,102534.78
2024-05-09T02:48:02.309Z,102531.44
2024-05-09T02:50:36.880Z,102531.44
2024-05-09T02:53:12.774Z,102533.94
2024-05-09T02:55:40.652Z,102531.97
2024-05-09T02:58:07.776Z,102541.97
2024-05-09T03:00:39.590Z,102544.75
2024-05-09T03:03:13.728Z,102537.25
2024-05-09T03:05:46.191Z,102543.63
2024-05-09T03:08:13.589Z,102534.75
2024-05-09T03:10:40.065Z,102538.38
2024-05-09T03:13:07.738Z,102540.34
2024-05-09T03:15:34.058Z,102538.41
2024-05-09T03:18:00.929Z,102547.88
2024-05-09T03:20:32.971Z,102534.81
2024-05-09T03:23:01.228Z,102542.06
2024-05-09T03:25:27.682Z,102537.34
2024-05-09T03:27:54.435Z,102533.72
2024-05-09T03:30:30.941Z,102533.72
2024-05-09T03:33:14.942Z,102536.50
2024-05-09T03:35:46.382Z,102538.47
2024-05-09T03:38:12.959Z,102536.50
2024-05-09T03:40:46.767Z,102542.03
2024-05-09T03:43:13.821Z,102537.59
2024-05-09T03:45:40.086Z,102536.47
2024-05-09T03:48:07.266Z,102539.78
2024-05-09T03:50:35.954Z,102538.13
2024-05-09T03:53:03.504Z,102544.22
2024-05-09T03:55:30.214Z,102552.00
2024-05-09T03:57:56.669Z,102550.06
2024-05-09T04:00:31.269Z,102544.47
2024-05-09T04:03:05.086Z,102552.53
2024-05-09T04:05:32.281Z,102555.00
2024-05-09T04:07:58.902Z,102568.91
2024-05-09T04:10:32.382Z,102563.59
2024-05-09T04:13:00.580Z,102560.25
2024-05-09T04:15:27.105Z,102554.13
2024-05-09T04:17:53.708Z,102555.25
2024-05-09T04:20:29.392Z,102558.56
2024-05-09T04:23:04.510Z,102555.75
2024-05-09T04:25:33.846Z,102560.75
2024-05-09T04:28:00.188Z,102556.81
2024-05-09T04:30:36.000Z,102561.56
2024-05-09T04:33:06.383Z,102557.34
2024-05-09T04:35:33.668Z,102562.63
2024-05-09T04:38:00.194Z,102557.88
2024-05-09T04:40:33.104Z,102555.63
2024-05-09T04:43:06.191Z,102557.28
2024-05-09T04:45:33.114Z,102558.91
2024-05-09T04:48:00.222Z,102558.34
2024-05-09T04:50:35.564Z,102557.75
2024-05-09T04:53:06.231Z,102558.25
2024-05-09T04:55:33.404Z,102555.69
2024-05-09T04:58:00.634Z,102549.03
2024-05-09T05:00:35.238Z,102546.19
2024-05-09T05:03:09.747Z,102547.03
2024-05-09T05:05:39.787Z,102557.28
2024-05-09T05:08:11.593Z,102558.91
2024-05-09T05:10:38.255Z,102553.56
2024-05-09T05:13:19.870Z,102557.97
2024-05-09T05:15:49.004Z,102556.81
2024-05-09T05:18:16.549Z,102552.09
2024-05-09T05:20:43.882Z,102554.22
2024-05-09T05:23:12.597Z,102549.94
2024-05-09T05:25:39.885Z,102544.59
2024-05-09T05:28:07.446Z,102560.19
2024-05-09T05:30:37.094Z,102553.72
2024-05-09T05:33:10.678Z,102555.34
2024-05-09T05:35:37.581Z,102565.00
2024-05-09T05:38:06.270Z,102566.56
2024-05-09T05:40:38.191Z,102569.88
2024-05-09T05:43:08.150Z,102564.19
2024-05-09T05:45:34.729Z,102573.59
2024-05-09T05:48:03.833Z,102568.81
2024-05-09T05:50:35.840Z,102573.56
2024-05-09T05:53:10.935Z,102570.53
2024-05-09T05:55:39.644Z,102563.81
2024-05-09T05:58:10.688Z,102562.63
2024-05-09T06:00:39.724Z,102578.28
2024-05-09T06:03:09.062Z,102578.13
2024-05-09T06:05:38.155Z,102571.06
2024-05-09T06:08:05.169Z,102573.28
2024-05-09T06:10:38.072Z,102564.53
2024-05-09T06:13:07.872Z,102570.47
2024-05-09T06:15:34.797Z,102561.78
2024-05-09T06:18:04.146Z,102562.16
2024-05-09T06:20:36.524Z,102562.31
2024-05-09T06:23:08.874Z,102556.28
2024-05-09T06:25:36.057Z,102557.81
2024-05-09T06:28:03.470Z,102554.09
2024-05-09T06:30:38.380Z,102556.22
2024-05-09T06:33:10.778Z,102552.91
2024-05-09T06:35:39.316Z,102563.91
2024-05-09T06:38:08.262Z,102568.59
2024-05-09T06:40:38.417Z,102562.00
2024-05-09T06:43:13.487Z,102564.81
2024-05-09T06:45:40.486Z,102555.03
2024-05-09T06:48:08.614Z,102565.03
2024-05-09T06:50:39.247Z,102558.34
2024-05-09T06:53:07.489Z,102566.81
2024-05-09T06:55:34.344Z,102574.47
2024-05-09T06:58:00.876Z,102561.00
2024-05-09T07:00:35.235Z,102566.59
2024-05-09T07:03:16.060Z,102571.66
2024-05-09T07:05:46.270Z,102573.44
2024-05-09T07:08:14.097Z,102567.41
2024-05-09T07:10:41.332Z,102564.41
2024-05-09T07:13:12.032Z,102560.34
2024-05-09T07:15:39.856Z,102573.94
2024-05-09T07:18:19.873Z,102569.44
2024-05-09T07:20:48.397Z,102566.50
2024-05-09T07:23:16.278Z,102575.75
2024-05-09T07:25:44.029Z,102574.00
2024-05-09T07:28:15.070Z,102569.53
2024-05-09T07:30:42.228Z,102566.06
2024-05-09T07:33:09.058Z,102564.38
2024-05-09T07:35:35.965Z,102560.09
2024-05-09T07:38:02.857Z,102569.72
2024-05-09T07:40:35.763Z,102562.44
2024-05-09T07:43:04.392Z,102567.59
2024-05-09T07:45:47.885Z,102570.16
2024-05-09T07:52:38.293Z,102570.94
2024-05-09T07:53:48.355Z,102556.09
2024-05-09T07:56:19.175Z,102564.28
2024-05-09T07:58:50.025Z,102559.19
2024-05-09T08:01:16.931Z,102561.88
2024-05-09T08:03:46.145Z,102559.16
2024-05-09T08:06:12.813Z,102569.03
2024-05-09T08:08:39.375Z,102576.38
2024-05-09T08:11:06.209Z,102571.44
2024-05-09T08:13:32.761Z,102570.63
2024-05-09T08:15:59.346Z,102568.13
2024-05-09T08:18:26.072Z,102570.50
2024-05-09T08:20:52.758Z,102562.19
2024-05-09T08:23:19.336Z,102568.78
2024-05-09T08:25:45.836Z,102563.22
2024-05-09T08:28:12.701Z,102557.97
2024-05-09T08:30:39.642Z,102563.16
2024-05-09T08:33:07.183Z,102563.75
2024-05-09T08:35:35.391Z,102566.59
2024-05-09T08:38:03.582Z,102562.22
2024-05-09T08:40:36.100Z,102563.75
2024-05-09T08:43:12.159Z,102564.38
2024-05-09T08:45:42.384Z,102561.88
2024-05-09T08:48:12.048Z,102556.56
2024-05-09T08:50:41.151Z,102562.38
2024-05-09T08:53:08.725Z,102549.19
2024-05-09T08:55:38.146Z,102557.19
2024-05-09T08:58:09.113Z,102556.00
2024-05-09T09:00:39.034Z,102556.72
2024-05-09T09:03:09.472Z,102557.47
2024-05-09T09:05:40.040Z,102547.06
2024-05-09T09:08:08.948Z,102547.94
2024-05-09T09:10:39.466Z,102547.78
2024-05-09T09:13:08.713Z,102544.97
2024-05-09T09:15:49.118Z,102539.84
2024-05-09T09:18:17.178Z,102537.19
2024-05-09T09:20:44.847Z,102538.00
2024-05-09T09:23:11.767Z,102545.31
2024-05-09T09:25:42.164Z,102533.97
2024-05-09T09:28:10.059Z,102536.75
2024-05-09T09:30:41.444Z,102534.38
2024-05-09T09:33:09.813Z,102538.16
2024-05-09T09:35:39.633Z,102537.38
2024-05-09T09:38:11.184Z,102532.16
2024-05-09T09:40:46.624Z,102536.09
2024-05-09T09:43:21.668Z,102528.50
2024-05-09T09:45:50.731Z,102544.69
2024-05-09T09:48:17.920Z,102545.72
2024-05-09T09:50:44.998Z,102543.25
2024-05-09T09:53:12.372Z,102538.78
2024-05-09T09:55:39.643Z,102533.06
2024-05-09T09:58:08.763Z,102534.50
2024-05-09T10:00:37.489Z,102531.28
2024-05-09T10:03:04.647Z,102523.38
2024-05-09T10:05:32.775Z,102521.47
2024-05-09T10:08:04.225Z,102517.78
2024-05-09T10:10:34.090Z,102517.69
2024-05-09T10:13:04.914Z,102512.00
2024-05-09T10:15:47.615Z,102506.28
2024-05-09T10:18:14.983Z,102507.34
2024-05-09T10:20:45.932Z,102494.56
2024-05-09T10:23:25.726Z,102499.94
2024-05-09T10:26:02.390Z,102498.31
2024-05-09T10:28:30.371Z,102490.72
2024-05-09T10:31:16.292Z,102493.16
2024-05-09T10:33:51.371Z,102489.88
2024-05-09T10:36:23.014Z,102496.03
2024-05-09T10:38:50.889Z,102489.28
2024-05-09T10:41:17.961Z,102481.84
2024-05-09T10:43:44.247Z,102489.06
2024-05-09T10:46:11.822Z,102484.84
2024-05-09T10:48:41.778Z,102475.41
2024-05-09T10:51:08.354Z,102471.53
2024-05-09T10:53:45.673Z,102475.41
2024-05-09T10:56:18.235Z,102482.81
2024-05-09T10:58:44.599Z,102477.09
2024-05-09T11:01:12.464Z,102483.09
2024-05-09T11:03:39.902Z,102483.97
2024-05-09T11:06:07.469Z,102482.66
2024-05-09T11:08:35.436Z,102476.69
2024-05-09T11:11:05.979Z,102483.44
2024-05-09T11:13:35.481Z,102474.81
2024-05-09T11:16:03.222Z,102472.22
2024-05-09T11:18:34.836Z,102460.63
2024-05-09T11:21:11.484Z,102463.50
2024-05-09T11:23:38.039Z,102472.88
2024-05-09T11:26:05.510Z,102462.84
2024-05-09T11:28:32.335Z,102466.25
2024-05-09T11:31:09.844Z,102464.94
2024-05-09T11:33:42.770Z,102459.03
2024-05-09T11:36:09.766Z,102448.66
2024-05-09T11:38:36.594Z,102453.44
2024-05-09T11:41:04.610Z,102449.53
2024-05-09T11:43:31.338Z,102441.66
2024-05-09T11:45:58.206Z,102443.44
2024-05-09T11:48:25.995Z,102435.69
2024-05-09T11:50:54.558Z,102429.97
2024-05-09T11:55:48.694Z,102432.06
2024-05-09T11:58:16.734Z,102431.56
2024-05-09T12:00:44.149Z,102440.28
2024-05-09T12:03:11.299Z,102432.41
2024-05-09T12:05:38.199Z,102428.31
2024-05-09T12:08:05.794Z,102425.66
2024-05-09T12:10:35.259Z,102418.84
2024-05-09T12:13:05.831Z,102413.69
2024-05-09T12:15:35.850Z,102410.72
2024-05-09T12:18:04.200Z,102403.56
2024-05-09T12:20:37.297Z,102403.16
2024-05-09T12:23:08.903Z,102400.88
2024-05-09T12:25:37.355Z,102400.00
2024-05-09T12:28:04.458Z,102397.72
2024-05-09T12:30:37.253Z,102399.25
2024-05-09T12:33:12.940Z,102403.78
2024-05-09T12:35:44.000Z,102403.78
2024-05-09T12:38:14.127Z,102393.97
2024-05-09T12:40:41.471Z,102394.19
2024-05-09T12:43:09.411Z,102393.81
2024-05-09T12:45:37.923Z,102396.03
2024-05-09T12:48:07.696Z,102382.03
2024-05-09T12:50:35.093Z,102381.63
2024-05-09T12:53:03.628Z,102385.38
2024-05-09T12:55:37.356Z,102374.94
2024-05-09T12:58:12.142Z,102375.88
2024-05-09T13:00:41.669Z,102378.78
2024-05-09T13:03:08.582Z,102371.19
2024-05-09T13:05:35.390Z,102370.66
2024-05-09T13:08:03.584Z,102364.75
2024-05-09T13:10:32.813Z,102358.91
2024-05-09T13:13:01.795Z,102367.72
2024-05-09T13:15:39.747Z,102356.34
2024-05-09T13:18:07.345Z,102357.72
2024-05-09T13:20:36.320Z,102364.50
2024-05-09T13:23:06.090Z,102353.94
2024-05-09T13:25:34.233Z,102346.94
2024-05-09T13:28:01.056Z,102344.19
2024-05-09T13:30:35.777Z,102346.47
2024-05-09T13:33:07.487Z,102346.69
2024-05-09T13:35:35.487Z,102343.72
2024-05-09T13:38:04.465Z,102341.56
2024-05-09T13:40:34.625Z,102337.38
2024-05-09T13:43:06.501Z,102340.34
2024-05-09T13:45:34.946Z,102345.16
2024-05-09T13:48:03.291Z,102337.75
2024-05-09T13:50:34.508Z,102331.78
2024-05-09T13:53:04.329Z,102336.81
2024-05-09T13:55:31.181Z,102333.31
2024-05-09T13:57:58.067Z,102330.75
2024-05-09T14:02:54.659Z,102337.84
2024-05-09T14:05:21.756Z,102330.03
2024-05-09T14:07:48.495Z,102327.47
2024-05-09T14:10:22.938Z,102317.94
2024-05-09T14:12:55.275Z,102319.25
2024-05-09T14:15:22.047Z,102315.19
2024-05-09T14:17:48.820Z,102314.13
2024-05-09T14:20:23.806Z,102310.91
2024-05-09T14:23:00.884Z,102303.44
2024-05-09T14:25:31.329Z,102307.31
2024-05-09T14:27:58.287Z,102298.84
2024-05-09T14:30:33.737Z,102302.28
2024-05-09T14:33:04.354Z,102298.63
2024-05-09T14:35:31.110Z,102285.97
2024-05-09T14:37:58.479Z,102291.03
2024-05-09T14:43:01.092Z,102278.72
2024-05-09T14:45:29.522Z,102275.44
2024-05-09T14:47:56.495Z,102273.44
2024-05-09T14:50:28.311Z,102265.91
2024-05-09T14:53:02.176Z,102267.66
2024-05-09T14:55:29.071Z,102268.31
2024-05-09T14:57:55.800Z,102272.69
2024-05-09T15:00:28.679Z,102277.25
2024-05-09T15:03:00.060Z,102274.63
2024-05-09T15:05:26.912Z,102268.88
2024-05-09T15:07:53.706Z,102271.97
2024-05-09T15:10:27.063Z,102267.09
2024-05-09T15:13:00.934Z,102270.56
2024-05-09T15:15:27.901Z,102264.06
2024-05-09T15:17:55.058Z,102255.38
2024-05-09T15:20:30.971Z,102254.00
2024-05-09T15:23:02.483Z,102248.31
2024-05-09T15:25:29.601Z,102252.25
2024-05-09T15:27:56.844Z,102241.84
2024-05-09T15:30:30.922Z,102244.06
2024-05-09T15:33:02.676Z,102239.59
2024-05-09T15:35:29.578Z,102234.72
2024-05-09T15:37:56.634Z,102237.59
2024-05-09T15:40:34.381Z,102240.47
2024-05-09T15:43:06.403Z,102234.28
2024-05-09T15:45:33.624Z,102234.47
2024-05-09T15:48:02.118Z,102234.78
2024-05-09T15:50:36.736Z,102237.81
2024-05-09T15:53:08.549Z,102226.94
2024-05-09T15:55:36.120Z,102231.44
2024-05-09T15:58:03.845Z,102226.72
2024-05-09T16:00:38.352Z,102230.13
2024-05-09T16:03:13.134Z,102231.00
2024-05-09T16:05:42.654Z,102229.84
2024-05-09T16:08:09.687Z,102224.72
2024-05-09T16:10:41.361Z,102228.97
2024-05-09T16:13:10.218Z,102223.81
2024-05-09T16:15:36.901Z,102227.47
2024-05-09T16:18:03.856Z,102225.81
2024-05-09T16:20:38.840Z,102224.03
2024-05-09T16:23:08.913Z,102222.19
2024-05-09T16:25:36.561Z,102218.25
2024-05-09T16:28:07.388Z,102219.41
2024-05-09T16:30:40.446Z,102217.44
2024-05-09T16:33:07.626Z,102209.88
2024-05-09T16:35:35.388Z,102212.16
2024-05-09T16:38:03.225Z,102204.50
2024-05-09T16:40:36.876Z,102201.13
2024-05-09T16:43:07.015Z,102193.81
2024-05-09T16:45:34.674Z,102194.09
2024-05-09T16:48:02.262Z,102194.78
2024-05-09T16:50:33.291Z,102196.53
2024-05-09T16:53:06.359Z,102189.47
2024-05-09T16:55:35.038Z,102200.91
2024-05-09T16:58:02.755Z,102198.56
2024-05-09T17:00:38.338Z,102194.78
2024-05-09T17:03:09.917Z,102200.16
2024-05-09T17:05:37.058Z,102193.03
2024-05-09T17:08:04.040Z,102187.63
2024-05-09T17:10:33.634Z,102188.19
2024-05-09T17:13:06.327Z,102192.25
2024-05-09T17:15:34.190Z,102182.31
2024-05-09T17:18:01.051Z,102189.25
2024-05-09T17:20:33.070Z,102188.50
2024-05-09T17:23:02.971Z,102190.97
2024-05-09T17:25:29.325Z,102179.53
2024-05-09T17:27:55.807Z,102187.13
2024-05-09T17:30:29.336Z,102182.44
2024-05-09T17:33:02.964Z,102179.38
2024-05-09T17:35:30.626Z,102170.63
2024-05-09T17:37:57.794Z,102180.47
2024-05-09T17:40:31.403Z,102178.47
2024-05-09T17:43:02.289Z,102177.56
2024-05-09T17:45:28.956Z,102174.41
2024-05-09T17:47:55.836Z,102179.22
2024-05-09T17:50:30.208Z,102173.31
2024-05-09T17:53:01.154Z,102171.50
2024-05-09T17:55:28.038Z,102178.69
2024-05-09T17:57:54.747Z,102173.28
2024-05-09T18:00:29.531Z,102178.56
2024-05-09T18:03:04.176Z,102169.66
2024-05-09T18:05:31.199Z,102166.25
2024-05-09T18:07:58.014Z,102158.63
2024-05-09T18:10:32.537Z,102168.81
2024-05-09T18:13:03.341Z,102167.09
2024-05-09T18:15:29.982Z,102162.41
2024-05-09T18:17:59.369Z,102169.47
2024-05-09T18:20:36.648Z,102168.06
2024-05-09T18:23:08.878Z,102171.81
2024-05-09T18:25:35.548Z,102176.25
2024-05-09T18:28:08.240Z,102175.19
2024-05-09T18:30:36.742Z,102167.97
2024-05-09T18:33:06.316Z,102170.56
2024-05-09T18:35:34.402Z,102175.50
2024-05-09T18:38:00.832Z,102169.59
2024-05-09T18:40:32.974Z,102174.16
2024-05-09T18:43:03.800Z,102165.56
2024-05-09T18:45:30.803Z,102165.03
2024-05-09T18:47:57.711Z,102169.13
2024-05-09T18:50:32.221Z,102166.75
2024-05-09T18:53:05.332Z,102172.81
2024-05-09T18:55:31.861Z,102167.59
2024-05-09T18:57:58.535Z,102169.81
2024-05-09T19:00:33.515Z,102167.34
2024-05-09T19:03:04.430Z,102169.97
2024-05-09T19:05:31.890Z,102158.78
2024-05-09T19:07:59.171Z,102166.84
2024-05-09T19:10:28.708Z,102160.44
2024-05-09T19:12:58.811Z,102159.34
2024-05-09T19:15:25.370Z,102161.22
2024-05-09T19:17:51.896Z,102169.38
2024-05-09T19:20:25.280Z,102159.31
2024-05-09T19:22:58.198Z,102169.63
2024-05-09T19:25:24.856Z,102168.78
2024-05-09T19:27:51.453Z,102171.97
2024-05-09T19:30:28.914Z,102173.00
2024-05-09T19:33:02.953Z,102177.66
2024-05-09T19:35:29.631Z,102165.09
2024-05-09T19:37:56.261Z,102168.22
2024-05-09T19:40:29.025Z,102163.94
2024-05-09T19:42:58.816Z,102173.91
2024-05-09T19:45:25.454Z,102166.44
2024-05-09T19:47:52.547Z,102178.34
2024-05-09T19:50:26.728Z,102185.44
2024-05-09T19:52:59.702Z,102177.16
2024-05-09T19:55:26.312Z,102187.25
2024-05-09T19:57:52.880Z,102195.97
2024-05-09T20:00:26.190Z,102196.47
2024-05-09T20:02:59.026Z,102192.63
2024-05-09T20:05:26.250Z,102194.75
2024-05-09T20:07:53.387Z,102202.34
2024-05-09T20:10:23.954Z,102189.44
2024-05-09T20:12:55.816Z,102191.38
2024-05-09T20:15:22.311Z,102194.84
2024-05-09T20:17:49.027Z,102189.38
2024-05-09T20:20:27.296Z,102187.41
2024-05-09T20:22:59.845Z,102184.75
2024-05-09T20:25:29.533Z,102182.72
2024-05-09T20:27:56.150Z,102181.72
2024-05-09T20:30:31.473Z,102192.56
2024-05-09T20:33:00.915Z,102193.03
2024-05-09T20:35:31.188Z,102199.41
2024-05-09T20:37:59.014Z,102199.25
2024-05-09T20:40:31.624Z,102209.47
2024-05-09T20:43:02.225Z,102200.66
2024-05-09T20:45:28.922Z,102204.63
2024-05-09T20:47:55.883Z,102200.47
2024-05-09T20:50:29.288Z,102210.47
2024-05-09T20:53:03.608Z,102208.94
2024-05-09T20:55:30.547Z,102201.38
2024-05-09T20:57:57.535Z,102205.25
2024-05-09T21:00:33.788Z,102201.00
2024-05-09T21:03:05.847Z,102203.44
2024-05-09T21:05:33.023Z,102200.88
2024-05-09T21:07:59.719Z,102208.34
2024-05-09T21:10:27.229Z,102207.09
2024-05-09T21:12:56.410Z,102207.56
2024-05-09T21:15:23.055Z,102203.84
2024-05-09T21:17:49.694Z,102212.25
2024-05-09T21:20:20.609Z,102207.09
2024-05-09T21:22:51.050Z,102209.03
2024-05-09T21:25:17.776Z,102205.41
2024-05-09T21:27:44.591Z,102204.69
2024-05-09T21:30:18.616Z,102203.16
2024-05-09T21:32:54.187Z,102205.88
2024-05-09T21:35:20.750Z,102206.28
2024-05-09T21:37:47.184Z,102202.78
2024-05-09T21:40:20.677Z,102201.44
2024-05-09T21:42:51.876Z,102207.66
2024-05-09T21:45:18.478Z,102196.47
2024-05-09T21:47:45.235Z,102197.41
2024-05-09T21:50:22.082Z,102196.34
2024-05-09T21:52:50.047Z,102196.50
2024-05-09T21:55:16.738Z,102196.59
2024-05-09T21:57:43.485Z,102193.25
2024-05-09T22:00:20.340Z,102196.06
2024-05-09T22:02:51.744Z,102201.13
2024-05-09T22:05:18.611Z,102201.75
2024-05-09T22:07:45.197Z,102192.34
2024-05-09T22:10:19.974Z,102198.84
2024-05-09T22:12:55.011Z,102198.84
2024-05-09T22:15:21.706Z,102199.78
2024-05-09T22:17:48.455Z,102196.66
2024-05-09T22:20:22.104Z,102199.88
2024-05-09T22:22:55.461Z,102201.03
2024-05-09T22:25:22.013Z,102198.22
2024-05-09T22:27:51.709Z,102197.16
2024-05-09T22:30:23.971Z,102196.16
2024-05-09T22:32:57.853Z,102187.75
2024-05-09T22:35:24.396Z,102191.69
2024-05-09T22:37:50.990Z,102200.47
2024-05-09T22:40:23.927Z,102196.97
2024-05-09T22:42:55.895Z,102199.16
2024-05-09T22:45:22.481Z,102203.66
2024-05-09T22:47:49.210Z,102202.84
2024-05-09T22:50:22.405Z,102200.88
2024-05-09T22:52:52.926Z,102195.69
2024-05-09T22:55:19.535Z,102190.41
2024-05-09T22:57:46.202Z,102188.84
2024-05-09T23:00:15.958Z,102198.16
2024-05-09T23:02:42.962Z,102194.59
2024-05-09T23:05:09.969Z,102197.16
2024-05-09T23:07:36.777Z,102198.50
2024-05-09T23:10:05.467Z,102190.72
2024-05-09T23:12:34.943Z,102189.09
2024-05-09T23:15:01.634Z,102190.84
2024-05-09T23:17:28.108Z,102192.06
2024-05-09T23:19:54.643Z,102184.91
2024-05-09T23:22:21.256Z,102186.78
2024-05-09T23:24:47.553Z,102190.50
2024-05-09T23:27:14.192Z,102193.56
2024-05-09T23:29:40.243Z,102192.97
2024-05-09T23:32:08.783Z,102189.56
2024-05-09T23:34:35.386Z,102182.84
2024-05-09T23:37:01.682Z,102182.94
2024-05-09T23:39:27.828Z,102182.19
2024-05-09T23:41:53.932Z,102180.00
2024-05-09T23:44:20.429Z,102179.47
2024-05-09T23:46:46.893Z,102179.03
2024-05-09T23:49:13.327Z,102177.50
2024-05-09T23:51:39.710Z,102173.06
2024-05-09T23:54:08.028Z,102175.72
2024-05-09T23:56:34.521Z,102177.97
2024-05-09T23:59:00.953Z,102178.03
